sensor_id;sensor_type;location;lat;lon;timestamp;temperature;humidity
11280;DHT22;5696;50.928;6.960;2022-10-31T06:04:31;12.60;99.90
11280;DHT22;5696;50.928;6.960;2022-10-31T06:06:57;12.60;99.90
11280;DHT22;5696;50.928;6.960;2022-10-31T06:09:23;12.60;99.90
11280;DHT22;5696;50.928;6.960;2022-10-31T06:11:48;12.60;99.90
11280;DHT22;5696;50.928;6.960;2022-10-31T06:14:14;12.60;99.90
11280;DHT22;5696;50.928;6.960;2022-10-31T06:16:39;12.60;99.90
11280;DHT22;5696;50.928;6.960;2022-10-31T06:19:05;12.60;99.90
11280;DHT22;5696;50.928;6.960;2022-10-31T06:21:31;12.60;99.90
11280;DHT22;5696;50.928;6.960;2022-10-31T06:23:56;12.60;99.90
11280;DHT22;5696;50.928;6.960;2022-10-31T06:26:22;12.60;99.90
11280;DHT22;5696;50.928;6.960;2022-10-31T06:28:48;12.60;99.90
11280;DHT22;5696;50.928;6.960;2022-10-31T06:31:13;12.60;99.90
11280;DHT22;5696;50.928;6.960;2022-10-31T06:33:43;12.60;99.90
11280;DHT22;5696;50.928;6.960;2022-10-31T06:36:10;12.60;99.90
11280;DHT22;5696;50.928;6.960;2022-10-31T06:38:35;12.60;99.90
11280;DHT22;5696;50.928;6.960;2022-10-31T06:41:05;12.70;99.90
11280;DHT22;5696;50.928;6.960;2022-10-31T06:43:31;12.70;99.90
11280;DHT22;5696;50.928;6.960;2022-10-31T06:45:56;12.80;99.90
11280;DHT22;5696;50.928;6.960;2022-10-31T06:48:22;12.80;99.90
11280;DHT22;5696;50.928;6.960;2022-10-31T06:50:48;12.80;99.90
11280;DHT22;5696;50.928;6.960;2022-10-31T06:53:14;12.80;99.90
11280;DHT22;5696;50.928;6.960;2022-10-31T06:55:40;12.80;99.90
11280;DHT22;5696;50.928;6.960;2022-10-31T06:58:06;12.80;99.90
11280;DHT22;5696;50.928;6.960;2022-10-31T07:00:32;12.90;99.90
11280;DHT22;5696;50.928;6.960;2022-10-31T07:02:59;12.90;99.90
11280;DHT22;5696;50.928;6.960;2022-10-31T07:05:26;12.90;99.90
11280;DHT22;5696;50.928;6.960;2022-10-31T07:07:56;12.90;99.90
11280;DHT22;5696;50.928;6.960;2022-10-31T07:10:23;13.00;99.90
11280;DHT22;5696;50.928;6.960;2022-10-31T07:12:54;13.00;99.90
11280;DHT22;5696;50.928;6.960;2022-10-31T07:15:20;13.00;99.90
11280;DHT22;5696;50.928;6.960;2022-10-31T07:17:46;13.00;99.90
11280;DHT22;5696;50.928;6.960;2022-10-31T07:20:11;13.10;99.90
11280;DHT22;5696;50.928;6.960;2022-10-31T07:22:37;13.10;99.90
11280;DHT22;5696;50.928;6.960;2022-10-31T07:25:03;13.10;99.90
11280;DHT22;5696;50.928;6.960;2022-10-31T07:27:44;13.10;99.90
11280;DHT22;5696;50.928;6.960;2022-10-31T07:30:11;13.20;99.90
11280;DHT22;5696;50.928;6.960;2022-10-31T07:32:57;13.20;99.90
11280;DHT22;5696;50.928;6.960;2022-10-31T07:35:24;13.20;99.90
11280;DHT22;5696;50.928;6.960;2022-10-31T07:37:51;13.30;99.90
11280;DHT22;5696;50.928;6.960;2022-10-31T07:40:17;13.30;99.90
11280;DHT22;5696;50.928;6.960;2022-10-31T07:42:45;13.40;99.90
11280;DHT22;5696;50.928;6.960;2022-10-31T07:45:13;13.40;99.90
11280;DHT22;5696;50.928;6.960;2022-10-31T07:50:04;13.50;99.90
11280;DHT22;5696;50.928;6.960;2022-10-31T07:52:30;13.60;99.90
11280;DHT22;5696;50.928;6.960;2022-10-31T07:54:55;13.70;99.90
11280;DHT22;5696;50.928;6.960;2022-10-31T07:57:21;13.80;99.90
11280;DHT22;5696;50.928;6.960;2022-10-31T07:59:46;13.80;99.90
11280;DHT22;5696;50.928;6.960;2022-10-31T08:02:12;13.90;99.90
11280;DHT22;5696;50.928;6.960;2022-10-31T08:04:38;13.90;99.90
11280;DHT22;5696;50.928;6.960;2022-10-31T08:07:03;14.00;99.90
11280;DHT22;5696;50.928;6.960;2022-10-31T08:09:29;13.90;99.90
11280;DHT22;5696;50.928;6.960;2022-10-31T08:11:54;13.90;99.90
11280;DHT22;5696;50.928;6.960;2022-10-31T08:14:20;13.90;99.90
11280;DHT22;5696;50.928;6.960;2022-10-31T08:16:46;14.00;99.90
11280;DHT22;5696;50.928;6.960;2022-10-31T08:19:11;14.00;99.90
11280;DHT22;5696;50.928;6.960;2022-10-31T08:21:37;14.00;99.90
11280;DHT22;5696;50.928;6.960;2022-10-31T08:24:03;14.00;99.90
11280;DHT22;5696;50.928;6.960;2022-10-31T08:26:28;14.00;99.90
11280;DHT22;5696;50.928;6.960;2022-10-31T08:28:54;14.10;99.90
11280;DHT22;5696;50.928;6.960;2022-10-31T08:31:20;14.00;99.90
11280;DHT22;5696;50.928;6.960;2022-10-31T08:33:46;14.00;99.90
11280;DHT22;5696;50.928;6.960;2022-10-31T08:36:12;14.10;99.90
11280;DHT22;5696;50.928;6.960;2022-10-31T08:38:37;14.10;99.90
11280;DHT22;5696;50.928;6.960;2022-10-31T08:41:03;14.10;99.90
11280;DHT22;5696;50.928;6.960;2022-10-31T08:43:28;14.20;99.90
11280;DHT22;5696;50.928;6.960;2022-10-31T08:45:54;14.20;99.90
11280;DHT22;5696;50.928;6.960;2022-10-31T08:48:21;14.30;99.90
11280;DHT22;5696;50.928;6.960;2022-10-31T08:50:47;14.40;99.90
11280;DHT22;5696;50.928;6.960;2022-10-31T08:53:15;14.60;99.90
11280;DHT22;5696;50.928;6.960;2022-10-31T08:55:41;14.60;99.90
11280;DHT22;5696;50.928;6.960;2022-10-31T08:58:10;14.60;99.90
11280;DHT22;5696;50.928;6.960;2022-10-31T09:00:37;14.60;99.90
11280;DHT22;5696;50.928;6.960;2022-10-31T09:03:05;14.70;99.90
11280;DHT22;5696;50.928;6.960;2022-10-31T09:05:31;14.80;99.90
11280;DHT22;5696;50.928;6.960;2022-10-31T09:08:02;14.90;99.90
11280;DHT22;5696;50.928;6.960;2022-10-31T09:10:29;15.00;99.90
11280;DHT22;5696;50.928;6.960;2022-10-31T09:12:56;14.90;99.90
11280;DHT22;5696;50.928;6.960;2022-10-31T09:15:23;15.00;99.90
11280;DHT22;5696;50.928;6.960;2022-10-31T09:17:49;15.00;99.90
11280;DHT22;5696;50.928;6.960;2022-10-31T09:20:14;15.00;99.90
11280;DHT22;5696;50.928;6.960;2022-10-31T09:22:40;15.00;99.90
11280;DHT22;5696;50.928;6.960;2022-10-31T09:25:06;15.10;99.90
11280;DHT22;5696;50.928;6.960;2022-10-31T09:27:32;15.20;99.90
11280;DHT22;5696;50.928;6.960;2022-10-31T09:29:57;15.20;99.90
11280;DHT22;5696;50.928;6.960;2022-10-31T09:32:23;15.20;99.90
11280;DHT22;5696;50.928;6.960;2022-10-31T09:34:48;15.40;99.90
11280;DHT22;5696;50.928;6.960;2022-10-31T09:37:14;15.40;99.90
11280;DHT22;5696;50.928;6.960;2022-10-31T09:39:40;15.50;99.90
11280;DHT22;5696;50.928;6.960;2022-10-31T09:47:44;15.90;99.90
11280;DHT22;5696;50.928;6.960;2022-10-31T09:50:46;16.00;99.90
11280;DHT22;5696;50.928;6.960;2022-10-31T09:55:51;16.40;99.90
11280;DHT22;5696;50.928;6.960;2022-10-31T09:58:25;16.60;99.90
11280;DHT22;5696;50.928;6.960;2022-10-31T10:00:52;16.80;99.90
11280;DHT22;5696;50.928;6.960;2022-10-31T10:03:35;17.00;99.90
11280;DHT22;5696;50.928;6.960;2022-10-31T10:08:39;17.40;99.90
11280;DHT22;5696;50.928;6.960;2022-10-31T10:17:03;17.60;99.90
11280;DHT22;5696;50.928;6.960;2022-10-31T10:22:25;17.70;99.90
11280;DHT22;5696;50.928;6.960;2022-10-31T10:27:46;18.00;99.90
11280;DHT22;5696;50.928;6.960;2022-10-31T10:33:08;18.20;99.90
11280;DHT22;5696;50.928;6.960;2022-10-31T10:35:36;18.40;99.90
11280;DHT22;5696;50.928;6.960;2022-10-31T10:40:41;18.60;99.90
11280;DHT22;5696;50.928;6.960;2022-10-31T10:43:33;18.70;99.90
11280;DHT22;5696;50.928;6.960;2022-10-31T10:46:21;18.80;99.90
11280;DHT22;5696;50.928;6.960;2022-10-31T10:49:40;18.80;99.90
11280;DHT22;5696;50.928;6.960;2022-10-31T11:00:25;19.20;99.90
11280;DHT22;5696;50.928;6.960;2022-10-31T11:02:51;19.10;99.90
11280;DHT22;5696;50.928;6.960;2022-10-31T11:08:34;18.90;99.90
11280;DHT22;5696;50.928;6.960;2022-10-31T11:11:19;19.00;99.90
11280;DHT22;5696;50.928;6.960;2022-10-31T11:13:50;18.90;99.90
11280;DHT22;5696;50.928;6.960;2022-10-31T11:17:06;19.10;99.90
11280;DHT22;5696;50.928;6.960;2022-10-31T11:19:33;19.20;99.90
11280;DHT22;5696;50.928;6.960;2022-10-31T11:22:15;19.40;99.90
11280;DHT22;5696;50.928;6.960;2022-10-31T11:24:41;19.40;99.90
11280;DHT22;5696;50.928;6.960;2022-10-31T11:27:16;19.40;99.90
11280;DHT22;5696;50.928;6.960;2022-10-31T11:29:42;19.30;99.90
11280;DHT22;5696;50.928;6.960;2022-10-31T11:32:22;19.20;99.90
11280;DHT22;5696;50.928;6.960;2022-10-31T11:35:01;19.30;99.90
11280;DHT22;5696;50.928;6.960;2022-10-31T11:37:32;19.30;99.90
11280;DHT22;5696;50.928;6.960;2022-10-31T11:40:03;19.40;99.90
11280;DHT22;5696;50.928;6.960;2022-10-31T11:42:41;19.40;99.90
11280;DHT22;5696;50.928;6.960;2022-10-31T11:45:33;19.40;99.90
11280;DHT22;5696;50.928;6.960;2022-10-31T11:48:01;19.40;99.90
11280;DHT22;5696;50.928;6.960;2022-10-31T11:50:37;19.50;99.90
11280;DHT22;5696;50.928;6.960;2022-10-31T11:53:15;19.50;99.90
11280;DHT22;5696;50.928;6.960;2022-10-31T11:55:41;19.50;99.90
11280;DHT22;5696;50.928;6.960;2022-10-31T11:58:25;19.50;99.90
11280;DHT22;5696;50.928;6.960;2022-10-31T12:00:53;19.60;99.90
11280;DHT22;5696;50.928;6.960;2022-10-31T12:06:02;19.50;99.90
11280;DHT22;5696;50.928;6.960;2022-10-31T12:08:31;19.40;99.90
11280;DHT22;5696;50.928;6.960;2022-10-31T12:11:42;19.60;99.90
11280;DHT22;5696;50.928;6.960;2022-10-31T12:13:56;19.60;99.90
11280;DHT22;5696;50.928;6.960;2022-10-31T12:16:28;19.70;99.90
11280;DHT22;5696;50.928;6.960;2022-10-31T12:19:06;19.70;99.90
11280;DHT22;5696;50.928;6.960;2022-10-31T12:24:56;19.70;99.90
11280;DHT22;5696;50.928;6.960;2022-10-31T12:50:22;20.00;99.90
11280;DHT22;5696;50.928;6.960;2022-10-31T12:53:25;19.80;99.90
11280;DHT22;5696;50.928;6.960;2022-10-31T13:01:41;20.00;99.90
11280;DHT22;5696;50.928;6.960;2022-10-31T13:06:50;19.90;99.90
11280;DHT22;5696;50.928;6.960;2022-10-31T13:09:38;20.00;99.90
11280;DHT22;5696;50.928;6.960;2022-10-31T13:12:11;19.90;99.90
11280;DHT22;5696;50.928;6.960;2022-10-31T13:14:42;20.00;99.90
11280;DHT22;5696;50.928;6.960;2022-10-31T13:17:18;20.00;99.90
11280;DHT22;5696;50.928;6.960;2022-10-31T13:19:46;20.10;99.90
11280;DHT22;5696;50.928;6.960;2022-10-31T13:22:20;20.10;99.90
11280;DHT22;5696;50.928;6.960;2022-10-31T13:27:30;20.30;99.90
11280;DHT22;5696;50.928;6.960;2022-10-31T13:30:17;20.40;99.90
11280;DHT22;5696;50.928;6.960;2022-10-31T13:35:44;20.20;99.90
11280;DHT22;5696;50.928;6.960;2022-10-31T13:38:46;20.20;99.90
11280;DHT22;5696;50.928;6.960;2022-10-31T13:41:50;20.10;99.90
11280;DHT22;5696;50.928;6.960;2022-10-31T13:44:23;20.10;99.90
11280;DHT22;5696;50.928;6.960;2022-10-31T13:46:49;20.00;99.90
11280;DHT22;5696;50.928;6.960;2022-10-31T13:54:38;20.10;99.90
11280;DHT22;5696;50.928;6.960;2022-10-31T13:57:33;20.00;99.90
11280;DHT22;5696;50.928;6.960;2022-10-31T14:00:03;20.00;99.90
11280;DHT22;5696;50.928;6.960;2022-10-31T14:02:32;20.10;99.90
11280;DHT22;5696;50.928;6.960;2022-10-31T14:05:01;20.10;99.90
11280;DHT22;5696;50.928;6.960;2022-10-31T14:07:29;20.00;99.90
11280;DHT22;5696;50.928;6.960;2022-10-31T14:10:04;20.00;99.90
11280;DHT22;5696;50.928;6.960;2022-10-31T14:12:43;20.00;99.90
11280;DHT22;5696;50.928;6.960;2022-10-31T14:15:22;19.90;99.90
11280;DHT22;5696;50.928;6.960;2022-10-31T14:18:04;19.80;99.90
11280;DHT22;5696;50.928;6.960;2022-10-31T14:22:58;19.70;99.90
11280;DHT22;5696;50.928;6.960;2022-10-31T14:25:35;19.70;99.90
11280;DHT22;5696;50.928;6.960;2022-10-31T14:28:05;19.60;99.90
11280;DHT22;5696;50.928;6.960;2022-10-31T14:30:55;19.80;99.90
11280;DHT22;5696;50.928;6.960;2022-10-31T14:33:22;19.80;99.90
11280;DHT22;5696;50.928;6.960;2022-10-31T14:36:08;19.70;99.90
11280;DHT22;5696;50.928;6.960;2022-10-31T14:38:50;19.70;99.90
11280;DHT22;5696;50.928;6.960;2022-10-31T14:44:11;19.70;99.90
11280;DHT22;5696;50.928;6.960;2022-10-31T14:51:52;19.70;99.90
11280;DHT22;5696;50.928;6.960;2022-10-31T14:54:37;19.70;99.90
11280;DHT22;5696;50.928;6.960;2022-10-31T14:57:07;19.80;99.90
11280;DHT22;5696;50.928;6.960;2022-10-31T14:59:37;19.70;99.90
11280;DHT22;5696;50.928;6.960;2022-10-31T15:02:25;19.70;99.90
11280;DHT22;5696;50.928;6.960;2022-10-31T15:04:53;19.60;99.90
11280;DHT22;5696;50.928;6.960;2022-10-31T15:07:22;19.60;99.90
11280;DHT22;5696;50.928;6.960;2022-10-31T15:10:05;19.50;99.90
11280;DHT22;5696;50.928;6.960;2022-10-31T15:12:32;19.50;99.90
11280;DHT22;5696;50.928;6.960;2022-10-31T15:15:10;19.60;99.90
11280;DHT22;5696;50.928;6.960;2022-10-31T15:17:36;19.50;99.90
11280;DHT22;5696;50.928;6.960;2022-10-31T15:20:10;19.40;99.90
11280;DHT22;5696;50.928;6.960;2022-10-31T15:22:36;19.50;99.90
11280;DHT22;5696;50.928;6.960;2022-10-31T15:25:02;19.40;99.90
11280;DHT22;5696;50.928;6.960;2022-10-31T15:27:27;19.40;99.90
11280;DHT22;5696;50.928;6.960;2022-10-31T15:29:56;19.30;99.90
11280;DHT22;5696;50.928;6.960;2022-10-31T15:32:27;19.20;99.90
11280;DHT22;5696;50.928;6.960;2022-10-31T15:34:54;19.20;99.90
11280;DHT22;5696;50.928;6.960;2022-10-31T15:37:25;19.10;99.90
11280;DHT22;5696;50.928;6.960;2022-10-31T15:39:51;19.00;99.90
11280;DHT22;5696;50.928;6.960;2022-10-31T15:47:45;18.80;99.90
11280;DHT22;5696;50.928;6.960;2022-10-31T15:52:50;18.70;99.90
11280;DHT22;5696;50.928;6.960;2022-10-31T15:55:22;18.60;99.90
11280;DHT22;5696;50.928;6.960;2022-10-31T15:57:51;18.60;99.90
11280;DHT22;5696;50.928;6.960;2022-10-31T16:00:22;18.50;99.90
11280;DHT22;5696;50.928;6.960;2022-10-31T16:02:48;18.40;99.90
11280;DHT22;5696;50.928;6.960;2022-10-31T16:05:18;18.30;99.90
11280;DHT22;5696;50.928;6.960;2022-10-31T16:07:51;18.20;99.90
11280;DHT22;5696;50.928;6.960;2022-10-31T16:10:25;18.10;99.90
11280;DHT22;5696;50.928;6.960;2022-10-31T16:12:52;18.10;99.90
11280;DHT22;5696;50.928;6.960;2022-10-31T16:15:19;18.10;99.90
11280;DHT22;5696;50.928;6.960;2022-10-31T16:17:48;18.10;99.90
11280;DHT22;5696;50.928;6.960;2022-10-31T16:20:27;18.10;99.90
11280;DHT22;5696;50.928;6.960;2022-10-31T16:22:54;18.00;99.90
11280;DHT22;5696;50.928;6.960;2022-10-31T16:25:27;17.90;99.90
11280;DHT22;5696;50.928;6.960;2022-10-31T16:27:59;17.80;99.90
11280;DHT22;5696;50.928;6.960;2022-10-31T16:30:39;17.70;99.90
11280;DHT22;5696;50.928;6.960;2022-10-31T16:33:33;17.80;99.90
11280;DHT22;5696;50.928;6.960;2022-10-31T16:38:45;17.70;99.90
11280;DHT22;5696;50.928;6.960;2022-10-31T16:41:11;17.60;99.90
11280;DHT22;5696;50.928;6.960;2022-10-31T16:43:37;17.60;99.90
11280;DHT22;5696;50.928;6.960;2022-10-31T16:46:03;17.60;99.90
11280;DHT22;5696;50.928;6.960;2022-10-31T16:48:29;17.60;99.90
11280;DHT22;5696;50.928;6.960;2022-10-31T16:50:54;17.60;99.90
11280;DHT22;5696;50.928;6.960;2022-10-31T16:53:20;17.60;99.90
11280;DHT22;5696;50.928;6.960;2022-10-31T16:55:49;17.60;99.90
11280;DHT22;5696;50.928;6.960;2022-10-31T16:58:29;17.50;99.90
11280;DHT22;5696;50.928;6.960;2022-10-31T17:00:55;17.60;99.90
11280;DHT22;5696;50.928;6.960;2022-10-31T17:03:21;17.60;99.90
11280;DHT22;5696;50.928;6.960;2022-10-31T17:05:47;17.60;99.90
11280;DHT22;5696;50.928;6.960;2022-10-31T17:08:13;17.60;99.90
11280;DHT22;5696;50.928;6.960;2022-10-31T17:10:40;17.60;99.90
11280;DHT22;5696;50.928;6.960;2022-10-31T17:13:08;17.60;99.90
11280;DHT22;5696;50.928;6.960;2022-10-31T17:15:41;17.50;99.90
11280;DHT22;5696;50.928;6.960;2022-10-31T17:18:14;17.50;99.90
11280;DHT22;5696;50.928;6.960;2022-10-31T17:20:41;17.50;99.90
11280;DHT22;5696;50.928;6.960;2022-10-31T17:23:12;17.40;99.90
11280;DHT22;5696;50.928;6.960;2022-10-31T17:25:38;17.40;99.90
11280;DHT22;5696;50.928;6.960;2022-10-31T17:28:05;17.50;99.90
11280;DHT22;5696;50.928;6.960;2022-10-31T17:30:31;17.50;99.90
11280;DHT22;5696;50.928;6.960;2022-10-31T17:32:58;17.40;99.90
11280;DHT22;5696;50.928;6.960;2022-10-31T17:35:23;17.30;99.90
11280;DHT22;5696;50.928;6.960;2022-10-31T17:37:49;17.40;99.90
11280;DHT22;5696;50.928;6.960;2022-10-31T17:40:20;17.40;99.90
11280;DHT22;5696;50.928;6.960;2022-10-31T17:42:55;17.40;99.90
11280;DHT22;5696;50.928;6.960;2022-10-31T17:45:22;17.40;99.90
11280;DHT22;5696;50.928;6.960;2022-10-31T17:47:49;17.30;99.90
11280;DHT22;5696;50.928;6.960;2022-10-31T17:50:16;17.30;99.90
11280;DHT22;5696;50.928;6.960;2022-10-31T17:52:42;17.20;99.90
11280;DHT22;5696;50.928;6.960;2022-10-31T17:55:08;17.20;99.90
11280;DHT22;5696;50.928;6.960;2022-10-31T17:57:35;17.20;99.90
11280;DHT22;5696;50.928;6.960;2022-10-31T18:00:02;17.20;99.90
11280;DHT22;5696;50.928;6.960;2022-10-31T18:02:28;17.20;99.90
11280;DHT22;5696;50.928;6.960;2022-10-31T18:04:54;17.20;99.90
11280;DHT22;5696;50.928;6.960;2022-10-31T18:07:19;17.20;99.90
11280;DHT22;5696;50.928;6.960;2022-10-31T18:09:46;17.20;99.90
11280;DHT22;5696;50.928;6.960;2022-10-31T18:12:12;17.20;99.90
11280;DHT22;5696;50.928;6.960;2022-10-31T18:14:37;17.10;99.90
11280;DHT22;5696;50.928;6.960;2022-10-31T18:17:03;17.10;99.90
11280;DHT22;5696;50.928;6.960;2022-10-31T18:19:29;17.20;99.90
11280;DHT22;5696;50.928;6.960;2022-10-31T18:21:54;17.20;99.90
11280;DHT22;5696;50.928;6.960;2022-10-31T18:24:20;17.10;99.90
11280;DHT22;5696;50.928;6.960;2022-10-31T18:26:45;17.10;99.90
11280;DHT22;5696;50.928;6.960;2022-10-31T18:29:11;17.20;99.90
11280;DHT22;5696;50.928;6.960;2022-10-31T18:31:37;17.10;99.90
11280;DHT22;5696;50.928;6.960;2022-10-31T18:34:02;17.10;99.90
11280;DHT22;5696;50.928;6.960;2022-10-31T18:36:28;17.10;99.90
11280;DHT22;5696;50.928;6.960;2022-10-31T18:38:53;17.10;99.90
11280;DHT22;5696;50.928;6.960;2022-10-31T18:41:19;17.10;99.90
11280;DHT22;5696;50.928;6.960;2022-10-31T18:43:45;17.10;99.90
11280;DHT22;5696;50.928;6.960;2022-10-31T18:46:15;17.00;99.90
11280;DHT22;5696;50.928;6.960;2022-10-31T18:48:43;17.00;99.90
11280;DHT22;5696;50.928;6.960;2022-10-31T18:51:10;17.00;99.90
11280;DHT22;5696;50.928;6.960;2022-10-31T18:53:37;16.90;99.90
11280;DHT22;5696;50.928;6.960;2022-10-31T18:56:08;16.80;99.90
11280;DHT22;5696;50.928;6.960;2022-10-31T18:58:33;16.80;99.90
11280;DHT22;5696;50.928;6.960;2022-10-31T19:01:07;16.70;99.90
11280;DHT22;5696;50.928;6.960;2022-10-31T19:03:34;16.70;99.90
11280;DHT22;5696;50.928;6.960;2022-10-31T19:06:00;16.60;99.90
11280;DHT22;5696;50.928;6.960;2022-10-31T19:08:26;16.60;99.90
11280;DHT22;5696;50.928;6.960;2022-10-31T19:10:51;16.60;99.90
11280;DHT22;5696;50.928;6.960;2022-10-31T19:13:17;16.50;99.90
11280;DHT22;5696;50.928;6.960;2022-10-31T19:15:43;16.40;99.90
11280;DHT22;5696;50.928;6.960;2022-10-31T19:18:08;16.40;99.90
11280;DHT22;5696;50.928;6.960;2022-10-31T19:20:36;16.40;99.90
11280;DHT22;5696;50.928;6.960;2022-10-31T19:23:02;16.30;99.90
11280;DHT22;5696;50.928;6.960;2022-10-31T19:25:28;16.30;99.90
11280;DHT22;5696;50.928;6.960;2022-10-31T19:27:53;16.30;99.90
11280;DHT22;5696;50.928;6.960;2022-10-31T19:30:19;16.30;99.90
11280;DHT22;5696;50.928;6.960;2022-10-31T19:32:46;16.30;99.90
11280;DHT22;5696;50.928;6.960;2022-10-31T19:35:11;16.30;99.90
11280;DHT22;5696;50.928;6.960;2022-10-31T19:37:38;16.40;99.90
11280;DHT22;5696;50.928;6.960;2022-10-31T19:40:06;16.30;99.90
11280;DHT22;5696;50.928;6.960;2022-10-31T19:42:32;16.30;99.90
11280;DHT22;5696;50.928;6.960;2022-10-31T19:44:58;16.20;99.90
11280;DHT22;5696;50.928;6.960;2022-10-31T19:47:23;16.30;99.90
11280;DHT22;5696;50.928;6.960;2022-10-31T19:49:49;16.20;99.90
11280;DHT22;5696;50.928;6.960;2022-10-31T19:52:15;16.20;99.90
11280;DHT22;5696;50.928;6.960;2022-10-31T19:54:40;16.20;99.90
11280;DHT22;5696;50.928;6.960;2022-10-31T19:57:06;16.30;99.90
11280;DHT22;5696;50.928;6.960;2022-10-31T19:59:31;16.30;99.90
11280;DHT22;5696;50.928;6.960;2022-10-31T20:01:57;16.40;99.90
11280;DHT22;5696;50.928;6.960;2022-10-31T20:04:23;16.30;99.90
11280;DHT22;5696;50.928;6.960;2022-10-31T20:06:49;16.30;99.90
11280;DHT22;5696;50.928;6.960;2022-10-31T20:09:14;16.30;99.90
11280;DHT22;5696;50.928;6.960;2022-10-31T20:11:42;16.30;99.90
11280;DHT22;5696;50.928;6.960;2022-10-31T20:14:10;16.30;99.90
11280;DHT22;5696;50.928;6.960;2022-10-31T20:16:36;16.30;99.90
11280;DHT22;5696;50.928;6.960;2022-10-31T20:19:02;16.20;99.90
11280;DHT22;5696;50.928;6.960;2022-10-31T20:21:29;16.10;99.90
11280;DHT22;5696;50.928;6.960;2022-10-31T20:23:57;16.20;99.90
11280;DHT22;5696;50.928;6.960;2022-10-31T20:26:23;16.10;99.90
11280;DHT22;5696;50.928;6.960;2022-10-31T20:28:49;16.10;99.90
11280;DHT22;5696;50.928;6.960;2022-10-31T20:31:20;16.10;99.90
11280;DHT22;5696;50.928;6.960;2022-10-31T20:33:47;16.10;99.90
11280;DHT22;5696;50.928;6.960;2022-10-31T20:36:12;16.00;99.90
11280;DHT22;5696;50.928;6.960;2022-10-31T20:38:40;16.10;99.90
11280;DHT22;5696;50.928;6.960;2022-10-31T20:41:08;16.10;99.90
11280;DHT22;5696;50.928;6.960;2022-10-31T20:43:34;16.10;99.90
11280;DHT22;5696;50.928;6.960;2022-10-31T20:46:01;16.10;99.90
11280;DHT22;5696;50.928;6.960;2022-10-31T20:48:28;16.10;99.90
11280;DHT22;5696;50.928;6.960;2022-10-31T20:51:02;16.10;99.90
11280;DHT22;5696;50.928;6.960;2022-10-31T20:53:28;16.00;99.90
11280;DHT22;5696;50.928;6.960;2022-10-31T20:56:09;16.10;99.90
11280;DHT22;5696;50.928;6.960;2022-10-31T20:58:36;16.10;99.90
11280;DHT22;5696;50.928;6.960;2022-10-31T21:01:02;16.10;99.90
11280;DHT22;5696;50.928;6.960;2022-10-31T21:03:28;16.00;99.90
11280;DHT22;5696;50.928;6.960;2022-10-31T21:05:59;15.90;99.90
11280;DHT22;5696;50.928;6.960;2022-10-31T21:08:26;15.80;99.90
11280;DHT22;5696;50.928;6.960;2022-10-31T21:10:52;15.80;99.90
11280;DHT22;5696;50.928;6.960;2022-10-31T21:13:18;15.70;99.90
11280;DHT22;5696;50.928;6.960;2022-10-31T21:15:45;15.70;99.90
11280;DHT22;5696;50.928;6.960;2022-10-31T21:18:11;15.70;99.90
11280;DHT22;5696;50.928;6.960;2022-10-31T21:20:43;15.60;99.90
11280;DHT22;5696;50.928;6.960;2022-10-31T21:23:12;15.70;99.90
11280;DHT22;5696;50.928;6.960;2022-10-31T21:25:40;15.70;99.90
11280;DHT22;5696;50.928;6.960;2022-10-31T21:28:07;15.70;99.90
11280;DHT22;5696;50.928;6.960;2022-10-31T21:30:33;15.80;99.90
11280;DHT22;5696;50.928;6.960;2022-10-31T21:32:59;15.70;99.90
11280;DHT22;5696;50.928;6.960;2022-10-31T21:35:25;15.60;99.90
11280;DHT22;5696;50.928;6.960;2022-10-31T21:37:50;15.60;99.90
11280;DHT22;5696;50.928;6.960;2022-10-31T21:40:16;15.60;99.90
11280;DHT22;5696;50.928;6.960;2022-10-31T21:42:41;15.60;99.90
11280;DHT22;5696;50.928;6.960;2022-10-31T21:45:07;15.60;99.90
11280;DHT22;5696;50.928;6.960;2022-10-31T21:47:33;15.50;99.90
11280;DHT22;5696;50.928;6.960;2022-10-31T21:49:58;15.60;99.90
11280;DHT22;5696;50.928;6.960;2022-10-31T21:52:24;15.60;99.90
11280;DHT22;5696;50.928;6.960;2022-10-31T21:54:49;15.50;99.90
11280;DHT22;5696;50.928;6.960;2022-10-31T21:57:15;15.50;99.90
11280;DHT22;5696;50.928;6.960;2022-10-31T21:59:40;15.50;99.90
11280;DHT22;5696;50.928;6.960;2022-10-31T22:02:10;15.50;99.90
11280;DHT22;5696;50.928;6.960;2022-10-31T22:04:36;15.50;99.90
11280;DHT22;5696;50.928;6.960;2022-10-31T22:07:02;15.60;99.90
11280;DHT22;5696;50.928;6.960;2022-10-31T22:09:28;15.60;99.90
11280;DHT22;5696;50.928;6.960;2022-10-31T22:11:53;15.60;99.90
11280;DHT22;5696;50.928;6.960;2022-10-31T22:14:19;15.60;99.90
11280;DHT22;5696;50.928;6.960;2022-10-31T22:16:44;15.60;99.90
11280;DHT22;5696;50.928;6.960;2022-10-31T22:19:13;15.70;99.90
11280;DHT22;5696;50.928;6.960;2022-10-31T22:21:45;15.60;99.90
11280;DHT22;5696;50.928;6.960;2022-10-31T22:24:12;15.70;99.90
11280;DHT22;5696;50.928;6.960;2022-10-31T22:26:38;15.70;99.90
11280;DHT22;5696;50.928;6.960;2022-10-31T22:29:08;15.70;99.90
11280;DHT22;5696;50.928;6.960;2022-10-31T22:31:38;15.70;99.90
11280;DHT22;5696;50.928;6.960;2022-10-31T22:34:04;15.80;99.90
11280;DHT22;5696;50.928;6.960;2022-10-31T22:36:30;15.80;99.90
11280;DHT22;5696;50.928;6.960;2022-10-31T22:38:56;15.70;99.90
11280;DHT22;5696;50.928;6.960;2022-10-31T22:41:24;15.80;99.90
11280;DHT22;5696;50.928;6.960;2022-10-31T22:43:50;15.80;99.90
11280;DHT22;5696;50.928;6.960;2022-10-31T22:46:21;15.80;99.90
11280;DHT22;5696;50.928;6.960;2022-10-31T22:48:49;15.80;99.90
11280;DHT22;5696;50.928;6.960;2022-10-31T22:51:21;15.80;99.90
11280;DHT22;5696;50.928;6.960;2022-10-31T22:53:47;15.80;99.90
11280;DHT22;5696;50.928;6.960;2022-10-31T22:56:15;15.90;99.90
11280;DHT22;5696;50.928;6.960;2022-10-31T22:58:41;15.90;99.90
11280;DHT22;5696;50.928;6.960;2022-10-31T23:01:08;15.90;99.90
11280;DHT22;5696;50.928;6.960;2022-10-31T23:03:35;15.90;99.90
11280;DHT22;5696;50.928;6.960;2022-10-31T23:06:02;15.90;99.90
11280;DHT22;5696;50.928;6.960;2022-10-31T23:08:47;15.80;99.90
